sensor_id;sensor_type;location;lat;lon;timestamp;pressure;altitude;pressure_sealevel;temperature;humidity
51315;BME280;65787;59.922;10.742;2023-06-04T00:00:38;101351.78;;;20.45;33.03
51315;BME280;65787;59.922;10.742;2023-06-04T00:03:04;101352.13;;;20.37;33.36
51315;BME280;65787;59.922;10.742;2023-06-04T00:05:29;101353.06;;;20.31;33.56
51315;BME280;65787;59.922;10.742;2023-06-04T00:07:55;101357.44;;;20.20;32.56
51315;BME280;65787;59.922;10.742;2023-06-04T00:10:20;101359.34;;;20.20;33.37
51315;BME280;65787;59.922;10.742;2023-06-04T00:12:45;101353.91;;;20.31;32.80
51315;BME280;65787;59.922;10.742;2023-06-04T00:15:11;101362.56;;;20.40;33.63
51315;BME280;65787;59.922;10.742;2023-06-04T00:17:36;101355.91;;;20.48;33.33
51315;BME280;65787;59.922;10.742;2023-06-04T00:20:01;101348.56;;;20.48;32.42
51315;BME280;65787;59.922;10.742;2023-06-04T00:22:27;101352.97;;;20.38;33.05
51315;BME280;65787;59.922;10.742;2023-06-04T00:24:52;101355.44;;;20.27;33.32
51315;BME280;65787;59.922;10.742;2023-06-04T00:27:17;101367.66;;;20.25;33.87
51315;BME280;65787;59.922;10.742;2023-06-04T00:29:43;101363.41;;;20.29;33.75
51315;BME280;65787;59.922;10.742;2023-06-04T00:32:08;101358.66;;;20.36;33.64
51315;BME280;65787;59.922;10.742;2023-06-04T00:34:33;101363.75;;;20.33;33.62
51315;BME280;65787;59.922;10.742;2023-06-04T00:36:59;101369.53;;;20.24;33.99
51315;BME280;65787;59.922;10.742;2023-06-04T00:39:26;101363.75;;;20.21;34.60
51315;BME280;65787;59.922;10.742;2023-06-04T00:41:51;101368.50;;;20.14;33.67
51315;BME280;65787;59.922;10.742;2023-06-04T00:44:17;101371.53;;;20.05;33.82
51315;BME280;65787;59.922;10.742;2023-06-04T00:46:42;101371.91;;;19.97;32.96
51315;BME280;65787;59.922;10.742;2023-06-04T00:49:10;101366.06;;;19.94;32.53
51315;BME280;65787;59.922;10.742;2023-06-04T00:51:37;101377.94;;;19.99;33.19
51315;BME280;65787;59.922;10.742;2023-06-04T00:54:03;101376.63;;;20.02;33.33
51315;BME280;65787;59.922;10.742;2023-06-04T00:56:33;101373.91;;;20.02;33.41
51315;BME280;65787;59.922;10.742;2023-06-04T00:58:59;101381.97;;;19.97;33.40
51315;BME280;65787;59.922;10.742;2023-06-04T01:03:54;101381.34;;;19.95;33.09
51315;BME280;65787;59.922;10.742;2023-06-04T01:08:49;101394.88;;;19.89;33.24
51315;BME280;65787;59.922;10.742;2023-06-04T01:11:14;101391.78;;;19.86;32.61
51315;BME280;65787;59.922;10.742;2023-06-04T01:13:40;101397.47;;;19.84;32.63
51315;BME280;65787;59.922;10.742;2023-06-04T01:16:05;101403.97;;;19.83;32.52
51315;BME280;65787;59.922;10.742;2023-06-04T01:18:30;101405.13;;;19.76;33.47
51315;BME280;65787;59.922;10.742;2023-06-04T01:21:02;101409.53;;;19.77;33.95
51315;BME280;65787;59.922;10.742;2023-06-04T01:23:33;101413.69;;;19.79;33.92
51315;BME280;65787;59.922;10.742;2023-06-04T01:25:59;101411.94;;;19.66;34.45
51315;BME280;65787;59.922;10.742;2023-06-04T01:28:28;101416.97;;;19.51;34.29
51315;BME280;65787;59.922;10.742;2023-06-04T01:30:54;101417.44;;;19.48;34.33
51315;BME280;65787;59.922;10.742;2023-06-04T01:33:21;101425.00;;;19.46;33.88
51315;BME280;65787;59.922;10.742;2023-06-04T01:35:47;101425.59;;;19.48;34.06
51315;BME280;65787;59.922;10.742;2023-06-04T01:38:13;101425.81;;;19.46;33.27
51315;BME280;65787;59.922;10.742;2023-06-04T01:40:38;101424.63;;;19.42;34.67
51315;BME280;65787;59.922;10.742;2023-06-04T01:43:04;101426.75;;;19.40;33.12
51315;BME280;65787;59.922;10.742;2023-06-04T01:45:30;101421.91;;;19.42;32.98
51315;BME280;65787;59.922;10.742;2023-06-04T01:47:55;101415.03;;;19.40;33.05
51315;BME280;65787;59.922;10.742;2023-06-04T01:50:21;101422.00;;;19.36;32.68
51315;BME280;65787;59.922;10.742;2023-06-04T01:52:47;101421.41;;;19.33;31.96
51315;BME280;65787;59.922;10.742;2023-06-04T01:55:12;101419.13;;;19.30;31.47
51315;BME280;65787;59.922;10.742;2023-06-04T01:57:38;101421.69;;;19.25;31.33
51315;BME280;65787;59.922;10.742;2023-06-04T02:00:04;101419.19;;;19.24;31.42
51315;BME280;65787;59.922;10.742;2023-06-04T02:02:33;101425.00;;;19.27;31.21
51315;BME280;65787;59.922;10.742;2023-06-04T02:04:58;101423.50;;;19.31;30.93
51315;BME280;65787;59.922;10.742;2023-06-04T02:07:23;101417.44;;;19.29;30.72
51315;BME280;65787;59.922;10.742;2023-06-04T02:09:51;101418.03;;;19.31;30.12
51315;BME280;65787;59.922;10.742;2023-06-04T02:12:16;101426.47;;;19.30;29.51
51315;BME280;65787;59.922;10.742;2023-06-04T02:14:42;101424.13;;;19.33;29.17
51315;BME280;65787;59.922;10.742;2023-06-04T02:17:08;101417.59;;;19.34;28.90
51315;BME280;65787;59.922;10.742;2023-06-04T02:19:37;101425.31;;;19.38;28.75
51315;BME280;65787;59.922;10.742;2023-06-04T02:22:05;101426.00;;;19.33;28.59
51315;BME280;65787;59.922;10.742;2023-06-04T02:24:30;101429.69;;;19.39;28.41
51315;BME280;65787;59.922;10.742;2023-06-04T02:26:55;101427.28;;;19.49;28.16
51315;BME280;65787;59.922;10.742;2023-06-04T02:29:21;101442.66;;;19.43;27.85
51315;BME280;65787;59.922;10.742;2023-06-04T02:31:46;101438.19;;;19.49;27.88
51315;BME280;65787;59.922;10.742;2023-06-04T02:34:11;101442.31;;;19.51;27.47
51315;BME280;65787;59.922;10.742;2023-06-04T02:36:37;101448.25;;;19.48;27.86
51315;BME280;65787;59.922;10.742;2023-06-04T02:39:02;101457.16;;;19.56;27.55
51315;BME280;65787;59.922;10.742;2023-06-04T02:41:28;101457.03;;;19.50;27.37
51315;BME280;65787;59.922;10.742;2023-06-04T02:43:53;101469.13;;;19.54;27.40
51315;BME280;65787;59.922;10.742;2023-06-04T02:46:18;101461.31;;;19.58;27.31
51315;BME280;65787;59.922;10.742;2023-06-04T02:48:44;101469.72;;;19.57;27.26
51315;BME280;65787;59.922;10.742;2023-06-04T02:51:09;101470.78;;;19.56;27.29
51315;BME280;65787;59.922;10.742;2023-06-04T02:53:35;101462.16;;;19.59;27.17
51315;BME280;65787;59.922;10.742;2023-06-04T02:56:01;101479.09;;;19.61;27.28
51315;BME280;65787;59.922;10.742;2023-06-04T02:58:26;101475.22;;;19.68;26.75
51315;BME280;65787;59.922;10.742;2023-06-04T03:00:54;101479.25;;;19.66;26.84
51315;BME280;65787;59.922;10.742;2023-06-04T03:03:19;101481.03;;;19.72;26.89
51315;BME280;65787;59.922;10.742;2023-06-04T03:05:47;101491.94;;;19.72;26.97
51315;BME280;65787;59.922;10.742;2023-06-04T03:08:14;101482.78;;;19.66;27.08
51315;BME280;65787;59.922;10.742;2023-06-04T03:10:39;101489.44;;;19.70;27.02
51315;BME280;65787;59.922;10.742;2023-06-04T03:13:05;101482.78;;;19.66;26.90
51315;BME280;65787;59.922;10.742;2023-06-04T03:15:30;101488.63;;;19.70;26.88
51315;BME280;65787;59.922;10.742;2023-06-04T03:17:55;101502.94;;;19.65;27.04
51315;BME280;65787;59.922;10.742;2023-06-04T03:20:22;101508.19;;;19.67;26.87
51315;BME280;65787;59.922;10.742;2023-06-04T03:22:49;101512.34;;;19.69;26.90
51315;BME280;65787;59.922;10.742;2023-06-04T03:25:14;101512.94;;;19.71;26.73
51315;BME280;65787;59.922;10.742;2023-06-04T03:27:39;101508.09;;;19.73;26.67
51315;BME280;65787;59.922;10.742;2023-06-04T03:30:05;101519.75;;;19.81;26.48
51315;BME280;65787;59.922;10.742;2023-06-04T03:32:30;101511.44;;;19.76;26.72
51315;BME280;65787;59.922;10.742;2023-06-04T03:34:56;101524.41;;;19.80;26.67
51315;BME280;65787;59.922;10.742;2023-06-04T03:37:21;101523.09;;;19.83;26.56
51315;BME280;65787;59.922;10.742;2023-06-04T03:39:46;101520.59;;;19.81;26.79
51315;BME280;65787;59.922;10.742;2023-06-04T03:42:12;101518.72;;;19.82;26.33
51315;BME280;65787;59.922;10.742;2023-06-04T03:44:37;101526.16;;;19.75;26.55
51315;BME280;65787;59.922;10.742;2023-06-04T03:47:02;101523.91;;;19.83;26.49
51315;BME280;65787;59.922;10.742;2023-06-04T03:49:27;101527.13;;;19.80;26.41
51315;BME280;65787;59.922;10.742;2023-06-04T03:51:53;101523.31;;;19.81;26.44
51315;BME280;65787;59.922;10.742;2023-06-04T03:54:18;101520.28;;;19.89;26.34
51315;BME280;65787;59.922;10.742;2023-06-04T03:56:44;101519.59;;;19.94;26.21
51315;BME280;65787;59.922;10.742;2023-06-04T03:59:10;101525.03;;;19.94;26.23
51315;BME280;65787;59.922;10.742;2023-06-04T04:01:39;101539.16;;;19.91;26.12
51315;BME280;65787;59.922;10.742;2023-06-04T04:04:04;101538.66;;;19.94;26.21
51315;BME280;65787;59.922;10.742;2023-06-04T04:06:30;101539.97;;;19.91;26.10
51315;BME280;65787;59.922;10.742;2023-06-04T04:08:55;101539.19;;;20.03;26.04
51315;BME280;65787;59.922;10.742;2023-06-04T04:11:23;101539.41;;;20.01;25.90
51315;BME280;65787;59.922;10.742;2023-06-04T04:13:49;101539.19;;;20.03;25.75
51315;BME280;65787;59.922;10.742;2023-06-04T04:16:14;101550.09;;;20.03;25.76
51315;BME280;65787;59.922;10.742;2023-06-04T04:18:41;101552.13;;;20.07;25.73
51315;BME280;65787;59.922;10.742;2023-06-04T04:21:06;101557.50;;;20.14;25.63
51315;BME280;65787;59.922;10.742;2023-06-04T04:23:32;101553.72;;;20.15;25.61
51315;BME280;65787;59.922;10.742;2023-06-04T04:26:00;101557.28;;;20.16;25.58
51315;BME280;65787;59.922;10.742;2023-06-04T04:28:27;101565.94;;;20.24;25.48
51315;BME280;65787;59.922;10.742;2023-06-04T04:30:54;101569.31;;;20.26;25.36
51315;BME280;65787;59.922;10.742;2023-06-04T04:33:22;101566.81;;;20.25;25.46
51315;BME280;65787;59.922;10.742;2023-06-04T04:35:49;101572.84;;;20.27;25.52
51315;BME280;65787;59.922;10.742;2023-06-04T04:38:15;101569.38;;;20.20;25.41
51315;BME280;65787;59.922;10.742;2023-06-04T04:40:42;101584.69;;;20.21;25.47
51315;BME280;65787;59.922;10.742;2023-06-04T04:43:07;101577.00;;;20.29;25.58
51315;BME280;65787;59.922;10.742;2023-06-04T04:45:32;101576.19;;;20.29;25.43
51315;BME280;65787;59.922;10.742;2023-06-04T04:47:57;101578.47;;;20.32;25.64
51315;BME280;65787;59.922;10.742;2023-06-04T04:50:23;101583.31;;;20.30;25.38
51315;BME280;65787;59.922;10.742;2023-06-04T04:52:48;101586.16;;;20.35;25.44
51315;BME280;65787;59.922;10.742;2023-06-04T04:55:13;101579.88;;;20.35;25.38
51315;BME280;65787;59.922;10.742;2023-06-04T04:57:39;101586.91;;;20.42;25.25
51315;BME280;65787;59.922;10.742;2023-06-04T05:00:05;101592.13;;;20.44;25.25
51315;BME280;65787;59.922;10.742;2023-06-04T05:02:34;101587.88;;;20.48;25.17
51315;BME280;65787;59.922;10.742;2023-06-04T05:04:59;101593.81;;;20.45;25.08
51315;BME280;65787;59.922;10.742;2023-06-04T05:07:24;101595.84;;;20.49;25.24
51315;BME280;65787;59.922;10.742;2023-06-04T05:09:50;101604.63;;;20.52;25.11
51315;BME280;65787;59.922;10.742;2023-06-04T05:12:15;101604.16;;;20.55;25.14
51315;BME280;65787;59.922;10.742;2023-06-04T05:14:41;101600.94;;;20.58;25.00
51315;BME280;65787;59.922;10.742;2023-06-04T05:17:06;101605.53;;;20.64;25.03
51315;BME280;65787;59.922;10.742;2023-06-04T05:19:34;101604.22;;;20.66;25.18
51315;BME280;65787;59.922;10.742;2023-06-04T05:21:59;101600.66;;;20.66;25.10
51315;BME280;65787;59.922;10.742;2023-06-04T05:24:25;101606.13;;;20.66;24.98
51315;BME280;65787;59.922;10.742;2023-06-04T05:26:51;101608.53;;;20.56;25.04
51315;BME280;65787;59.922;10.742;2023-06-04T05:29:16;101596.56;;;20.57;25.20
51315;BME280;65787;59.922;10.742;2023-06-04T05:31:41;101607.78;;;20.67;24.87
51315;BME280;65787;59.922;10.742;2023-06-04T05:34:07;101619.31;;;20.69;24.88
51315;BME280;65787;59.922;10.742;2023-06-04T05:36:33;101613.00;;;20.68;25.06
51315;BME280;65787;59.922;10.742;2023-06-04T05:38:58;101616.09;;;20.72;25.00
51315;BME280;65787;59.922;10.742;2023-06-04T05:41:25;101617.91;;;20.78;24.87
51315;BME280;65787;59.922;10.742;2023-06-04T05:43:51;101619.09;;;20.82;24.79
51315;BME280;65787;59.922;10.742;2023-06-04T05:46:16;101618.38;;;20.87;24.91
51315;BME280;65787;59.922;10.742;2023-06-04T05:48:41;101618.25;;;20.82;24.85
51315;BME280;65787;59.922;10.742;2023-06-04T05:51:07;101621.56;;;20.72;24.95
51315;BME280;65787;59.922;10.742;2023-06-04T05:53:32;101628.84;;;20.78;24.69
51315;BME280;65787;59.922;10.742;2023-06-04T05:55:58;101624.69;;;20.87;24.50
51315;BME280;65787;59.922;10.742;2023-06-04T05:58:23;101619.84;;;20.90;24.58
51315;BME280;65787;59.922;10.742;2023-06-04T06:00:48;101624.69;;;20.87;24.60
51315;BME280;65787;59.922;10.742;2023-06-04T06:03:15;101631.56;;;20.78;24.74
51315;BME280;65787;59.922;10.742;2023-06-04T06:05:41;101628.03;;;20.90;24.54
51315;BME280;65787;59.922;10.742;2023-06-04T06:08:06;101622.81;;;20.88;24.68
51315;BME280;65787;59.922;10.742;2023-06-04T06:10:32;101626.50;;;20.94;24.76
51315;BME280;65787;59.922;10.742;2023-06-04T06:12:57;101635.19;;;21.02;24.43
51315;BME280;65787;59.922;10.742;2023-06-04T06:15:22;101636.47;;;21.00;24.41
51315;BME280;65787;59.922;10.742;2023-06-04T06:17:48;101632.78;;;21.06;24.43
51315;BME280;65787;59.922;10.742;2023-06-04T06:20:13;101635.66;;;20.99;24.52
51315;BME280;65787;59.922;10.742;2023-06-04T06:22:42;101628.63;;;20.92;24.76
51315;BME280;65787;59.922;10.742;2023-06-04T06:25:07;101632.09;;;20.99;24.62
51315;BME280;65787;59.922;10.742;2023-06-04T06:27:33;101629.22;;;21.05;24.82
51315;BME280;65787;59.922;10.742;2023-06-04T06:29:58;101639.34;;;21.17;24.79
51315;BME280;65787;59.922;10.742;2023-06-04T06:32:24;101629.28;;;21.17;24.67
51315;BME280;65787;59.922;10.742;2023-06-04T06:34:49;101627.00;;;21.26;24.43
51315;BME280;65787;59.922;10.742;2023-06-04T06:37:15;101625.72;;;21.29;24.48
51315;BME280;65787;59.922;10.742;2023-06-04T06:39:40;101635.91;;;21.33;24.30
51315;BME280;65787;59.922;10.742;2023-06-04T06:42:05;101622.03;;;21.35;24.38
51315;BME280;65787;59.922;10.742;2023-06-04T06:44:31;101633.53;;;21.37;24.24
51315;BME280;65787;59.922;10.742;2023-06-04T06:46:56;101632.84;;;21.41;24.28
51315;BME280;65787;59.922;10.742;2023-06-04T06:49:21;101629.41;;;21.46;24.28
51315;BME280;65787;59.922;10.742;2023-06-04T06:51:46;101637.50;;;21.53;24.29
51315;BME280;65787;59.922;10.742;2023-06-04T06:54:14;101635.94;;;21.45;24.33
51315;BME280;65787;59.922;10.742;2023-06-04T06:56:39;101636.56;;;21.59;24.20
51315;BME280;65787;59.922;10.742;2023-06-04T06:59:05;101634.28;;;21.56;24.24
51315;BME280;65787;59.922;10.742;2023-06-04T07:01:30;101638.81;;;21.50;24.31
51315;BME280;65787;59.922;10.742;2023-06-04T07:03:57;101637.97;;;21.61;24.11
51315;BME280;65787;59.922;10.742;2023-06-04T07:06:22;101639.25;;;21.71;24.04
51315;BME280;65787;59.922;10.742;2023-06-04T07:08:48;101643.44;;;21.73;24.27
51315;BME280;65787;59.922;10.742;2023-06-04T07:11:13;101637.47;;;21.76;24.29
51315;BME280;65787;59.922;10.742;2023-06-04T07:13:39;101640.44;;;21.87;23.85
51315;BME280;65787;59.922;10.742;2023-06-04T07:16:04;101639.47;;;21.93;23.79
51315;BME280;65787;59.922;10.742;2023-06-04T07:18:29;101642.22;;;21.93;23.68
51315;BME280;65787;59.922;10.742;2023-06-04T07:20:55;101639.34;;;21.88;23.64
51315;BME280;65787;59.922;10.742;2023-06-04T07:23:20;101633.28;;;21.97;23.48
51315;BME280;65787;59.922;10.742;2023-06-04T07:25:46;101630.31;;;21.87;23.36
51315;BME280;65787;59.922;10.742;2023-06-04T07:28:11;101632.09;;;22.05;23.10
51315;BME280;65787;59.922;10.742;2023-06-04T07:30:37;101628.94;;;22.13;23.15
51315;BME280;65787;59.922;10.742;2023-06-04T07:33:02;101621.84;;;22.12;23.21
51315;BME280;65787;59.922;10.742;2023-06-04T07:35:28;101617.78;;;22.15;23.54
51315;BME280;65787;59.922;10.742;2023-06-04T07:37:55;101629.06;;;22.18;23.00
51315;BME280;65787;59.922;10.742;2023-06-04T07:40:20;101621.06;;;22.29;22.98
51315;BME280;65787;59.922;10.742;2023-06-04T07:42:46;101617.22;;;22.41;22.96
51315;BME280;65787;59.922;10.742;2023-06-04T07:45:12;101613.72;;;22.29;22.76
51315;BME280;65787;59.922;10.742;2023-06-04T07:47:37;101615.00;;;22.38;22.78
51315;BME280;65787;59.922;10.742;2023-06-04T07:50:03;101613.66;;;22.41;23.09
51315;BME280;65787;59.922;10.742;2023-06-04T07:52:29;101582.06;;;22.21;22.81
51315;BME280;65787;59.922;10.742;2023-06-04T07:54:54;101620.97;;;22.52;22.93
51315;BME280;65787;59.922;10.742;2023-06-04T07:57:20;101613.59;;;22.53;22.76
51315;BME280;65787;59.922;10.742;2023-06-04T07:59:45;101618.38;;;22.74;22.46
51315;BME280;65787;59.922;10.742;2023-06-04T08:02:11;101618.22;;;22.81;22.40
51315;BME280;65787;59.922;10.742;2023-06-04T08:04:36;101611.06;;;22.80;22.57
51315;BME280;65787;59.922;10.742;2023-06-04T08:07:01;101618.56;;;22.85;22.47
51315;BME280;65787;59.922;10.742;2023-06-04T08:09:27;101608.34;;;22.80;22.42
51315;BME280;65787;59.922;10.742;2023-06-04T08:11:52;101609.34;;;22.91;22.46
51315;BME280;65787;59.922;10.742;2023-06-04T08:14:17;101607.28;;;22.98;22.53
51315;BME280;65787;59.922;10.742;2023-06-04T08:16:43;101600.00;;;23.04;22.38
51315;BME280;65787;59.922;10.742;2023-06-04T08:19:08;101608.13;;;23.15;22.46
51315;BME280;65787;59.922;10.742;2023-06-04T08:21:34;101604.69;;;23.25;21.85
51315;BME280;65787;59.922;10.742;2023-06-04T08:23:59;101605.81;;;23.24;22.29
51315;BME280;65787;59.922;10.742;2023-06-04T08:26:25;101601.97;;;23.42;21.95
51315;BME280;65787;59.922;10.742;2023-06-04T08:28:52;101599.34;;;23.52;22.06
51315;BME280;65787;59.922;10.742;2023-06-04T08:31:17;101600.75;;;23.55;21.53
51315;BME280;65787;59.922;10.742;2023-06-04T08:33:44;101585.34;;;23.71;21.26
51315;BME280;65787;59.922;10.742;2023-06-04T08:36:10;101598.38;;;23.81;21.38
51315;BME280;65787;59.922;10.742;2023-06-04T08:38:35;101589.22;;;23.75;21.37
51315;BME280;65787;59.922;10.742;2023-06-04T08:41:16;101585.31;;;23.88;21.22
51315;BME280;65787;59.922;10.742;2023-06-04T08:43:43;101588.63;;;23.90;21.00
51315;BME280;65787;59.922;10.742;2023-06-04T08:46:13;101587.72;;;24.06;21.46
51315;BME280;65787;59.922;10.742;2023-06-04T08:48:44;101595.31;;;24.21;20.97
51315;BME280;65787;59.922;10.742;2023-06-04T08:51:09;101598.63;;;24.01;20.96
51315;BME280;65787;59.922;10.742;2023-06-04T08:53:35;101564.03;;;23.17;21.84
51315;BME280;65787;59.922;10.742;2023-06-04T08:56:02;101599.22;;;23.25;21.81
51315;BME280;65787;59.922;10.742;2023-06-04T08:58:29;101590.91;;;23.37;22.00
51315;BME280;65787;59.922;10.742;2023-06-04T09:00:56;101587.56;;;23.52;21.81
51315;BME280;65787;59.922;10.742;2023-06-04T09:03:21;101589.78;;;23.55;21.46
51315;BME280;65787;59.922;10.742;2023-06-04T09:05:47;101595.34;;;23.60;21.37
51315;BME280;65787;59.922;10.742;2023-06-04T09:08:15;101582.47;;;23.61;21.58
51315;BME280;65787;59.922;10.742;2023-06-04T09:10:42;101595.66;;;23.64;21.23
51315;BME280;65787;59.922;10.742;2023-06-04T09:13:09;101595.13;;;23.45;21.31
51315;BME280;65787;59.922;10.742;2023-06-04T09:15:35;101600.22;;;23.36;21.21
51315;BME280;65787;59.922;10.742;2023-06-04T09:18:00;101586.34;;;23.43;21.08
51315;BME280;65787;59.922;10.742;2023-06-04T09:20:26;101594.47;;;23.37;21.15
51315;BME280;65787;59.922;10.742;2023-06-04T09:22:52;101582.25;;;23.45;21.61
51315;BME280;65787;59.922;10.742;2023-06-04T09:25:23;101583.63;;;23.65;21.57
51315;BME280;65787;59.922;10.742;2023-06-04T09:27:56;101592.41;;;23.84;21.16
51315;BME280;65787;59.922;10.742;2023-06-04T09:30:22;101586.16;;;23.71;20.88
51315;BME280;65787;59.922;10.742;2023-06-04T09:32:48;101584.06;;;23.78;20.81
51315;BME280;65787;59.922;10.742;2023-06-04T09:35:17;101578.19;;;23.87;20.45
51315;BME280;65787;59.922;10.742;2023-06-04T09:37:43;101569.75;;;23.93;20.54
51315;BME280;65787;59.922;10.742;2023-06-04T09:40:16;101569.97;;;24.14;21.50
51315;BME280;65787;59.922;10.742;2023-06-04T09:42:45;101560.63;;;24.37;21.28
51315;BME280;65787;59.922;10.742;2023-06-04T09:45:11;101565.19;;;24.53;21.02
51315;BME280;65787;59.922;10.742;2023-06-04T09:47:43;101577.06;;;24.59;21.17
51315;BME280;65787;59.922;10.742;2023-06-04T09:50:10;101560.28;;;24.61;20.50
51315;BME280;65787;59.922;10.742;2023-06-04T09:52:35;101559.31;;;24.45;20.48
51315;BME280;65787;59.922;10.742;2023-06-04T09:55:02;101560.66;;;24.42;20.83
51315;BME280;65787;59.922;10.742;2023-06-04T09:57:28;101562.84;;;24.67;20.79
51315;BME280;65787;59.922;10.742;2023-06-04T09:59:54;101561.22;;;24.71;20.56
51315;BME280;65787;59.922;10.742;2023-06-04T10:02:20;101568.75;;;24.86;20.29
51315;BME280;65787;59.922;10.742;2023-06-04T10:04:55;101562.78;;;24.95;19.95
51315;BME280;65787;59.922;10.742;2023-06-04T10:07:24;101554.25;;;24.96;20.28
51315;BME280;65787;59.922;10.742;2023-06-04T10:09:50;101554.38;;;25.11;20.51
51315;BME280;65787;59.922;10.742;2023-06-04T10:12:15;101551.78;;;25.32;19.77
51315;BME280;65787;59.922;10.742;2023-06-04T10:14:45;101553.84;;;25.52;20.05
51315;BME280;65787;59.922;10.742;2023-06-04T10:17:12;101550.28;;;25.62;19.65
51315;BME280;65787;59.922;10.742;2023-06-04T10:19:38;101546.25;;;25.80;19.57
51315;BME280;65787;59.922;10.742;2023-06-04T10:22:05;101551.56;;;25.97;19.47
51315;BME280;65787;59.922;10.742;2023-06-04T10:24:30;101541.50;;;25.70;18.89
51315;BME280;65787;59.922;10.742;2023-06-04T10:26:59;101544.59;;;25.89;19.01
51315;BME280;65787;59.922;10.742;2023-06-04T10:29:25;101547.41;;;25.94;18.58
51315;BME280;65787;59.922;10.742;2023-06-04T10:31:57;101535.66;;;26.19;18.71
51315;BME280;65787;59.922;10.742;2023-06-04T10:34:22;101543.13;;;26.39;18.75
51315;BME280;65787;59.922;10.742;2023-06-04T10:36:47;101545.59;;;26.46;17.98
51315;BME280;65787;59.922;10.742;2023-06-04T10:39:13;101543.38;;;26.53;18.17
51315;BME280;65787;59.922;10.742;2023-06-04T10:41:38;101529.66;;;26.84;18.02
51315;BME280;65787;59.922;10.742;2023-06-04T10:44:03;101529.84;;;27.23;17.75
51315;BME280;65787;59.922;10.742;2023-06-04T10:46:38;101526.78;;;27.46;17.05
51315;BME280;65787;59.922;10.742;2023-06-04T10:49:08;101536.59;;;27.72;17.53
51315;BME280;65787;59.922;10.742;2023-06-04T10:51:34;101539.47;;;28.07;17.13
51315;BME280;65787;59.922;10.742;2023-06-04T10:54:02;101531.56;;;28.34;16.83
51315;BME280;65787;59.922;10.742;2023-06-04T10:56:28;101536.75;;;28.41;16.34
51315;BME280;65787;59.922;10.742;2023-06-04T10:58:54;101535.84;;;28.85;15.82
51315;BME280;65787;59.922;10.742;2023-06-04T11:01:26;101528.88;;;29.22;16.06
51315;BME280;65787;59.922;10.742;2023-06-04T11:03:53;101526.03;;;29.51;15.68
51315;BME280;65787;59.922;10.742;2023-06-04T11:06:18;101529.91;;;29.75;15.50
51315;BME280;65787;59.922;10.742;2023-06-04T11:08:44;101526.78;;;30.00;15.62
51315;BME280;65787;59.922;10.742;2023-06-04T11:11:10;101529.63;;;30.14;15.27
51315;BME280;65787;59.922;10.742;2023-06-04T11:13:36;101522.44;;;30.32;15.05
51315;BME280;65787;59.922;10.742;2023-06-04T11:16:01;101522.63;;;30.55;14.67
51315;BME280;65787;59.922;10.742;2023-06-04T11:18:26;101529.41;;;30.81;14.07
51315;BME280;65787;59.922;10.742;2023-06-04T11:20:58;101525.84;;;30.95;14.54
51315;BME280;65787;59.922;10.742;2023-06-04T11:23:24;101528.22;;;31.01;14.12
51315;BME280;65787;59.922;10.742;2023-06-04T11:25:54;101521.16;;;31.23;14.01
51315;BME280;65787;59.922;10.742;2023-06-04T11:28:20;101529.41;;;31.56;13.90
51315;BME280;65787;59.922;10.742;2023-06-04T11:33:22;101521.34;;;32.18;12.86
51315;BME280;65787;59.922;10.742;2023-06-04T11:35:48;101518.94;;;32.26;13.02
51315;BME280;65787;59.922;10.742;2023-06-04T11:38:13;101518.44;;;32.46;12.93
51315;BME280;65787;59.922;10.742;2023-06-04T11:40:40;101518.09;;;32.62;12.65
51315;BME280;65787;59.922;10.742;2023-06-04T11:43:09;101518.63;;;33.04;13.25
51315;BME280;65787;59.922;10.742;2023-06-04T11:45:35;101508.44;;;33.30;12.82
51315;BME280;65787;59.922;10.742;2023-06-04T11:48:01;101501.50;;;33.77;13.13
51315;BME280;65787;59.922;10.742;2023-06-04T11:50:28;101500.69;;;34.37;13.08
51315;BME280;65787;59.922;10.742;2023-06-04T11:52:54;101498.56;;;34.43;12.05
51315;BME280;65787;59.922;10.742;2023-06-04T11:55:20;101503.34;;;34.25;12.12
51315;BME280;65787;59.922;10.742;2023-06-04T11:57:49;101515.00;;;34.18;11.82
51315;BME280;65787;59.922;10.742;2023-06-04T12:00:15;101502.19;;;34.26;11.10
51315;BME280;65787;59.922;10.742;2023-06-04T12:02:53;101497.75;;;34.51;11.59
51315;BME280;65787;59.922;10.742;2023-06-04T12:05:19;101498.38;;;34.57;11.49
51315;BME280;65787;59.922;10.742;2023-06-04T12:07:46;101492.81;;;34.39;11.92
51315;BME280;65787;59.922;10.742;2023-06-04T12:10:12;101494.56;;;34.61;11.29
51315;BME280;65787;59.922;10.742;2023-06-04T12:12:38;101498.69;;;34.73;11.39
51315;BME280;65787;59.922;10.742;2023-06-04T12:15:05;101497.06;;;34.54;11.17
51315;BME280;65787;59.922;10.742;2023-06-04T12:17:32;101489.47;;;34.81;10.84
51315;BME280;65787;59.922;10.742;2023-06-04T12:19:57;101490.16;;;35.07;11.64
51315;BME280;65787;59.922;10.742;2023-06-04T12:22:24;101490.13;;;35.76;11.22
51315;BME280;65787;59.922;10.742;2023-06-04T12:24:50;101494.34;;;36.03;11.03
51315;BME280;65787;59.922;10.742;2023-06-04T12:27:18;101484.75;;;36.46;10.71
51315;BME280;65787;59.922;10.742;2023-06-04T12:29:53;101493.00;;;36.88;10.85
51315;BME280;65787;59.922;10.742;2023-06-04T12:32:19;101483.69;;;37.21;10.58
51315;BME280;65787;59.922;10.742;2023-06-04T12:34:44;101482.59;;;37.63;9.80
51315;BME280;65787;59.922;10.742;2023-06-04T12:37:10;101484.22;;;38.04;9.46
51315;BME280;65787;59.922;10.742;2023-06-04T12:39:35;101477.16;;;38.39;9.29
51315;BME280;65787;59.922;10.742;2023-06-04T12:42:10;101483.78;;;38.75;8.89